Time;durP1;ratioP1;P1;durP2;ratioP2;P2;SDS_P1;SDS_P2;PMS_P1;PMS_P2;Temp;Humidity;BMP_temperature;BMP_pressure;BME280_temperature;BME280_humidity;BME280_pressure;Samples;Min_cycle;Max_cycle;Signal;HPM_P1;HPM_P2
2022/09/18 00:01:15;;;;;;;16.90;3.90;;;;;;;9.71;100.00;101495.38;5084211;28;20107;-63
2022/09/18 00:03:40;;;;;;;15.95;3.78;;;;;;;9.73;100.00;101484.84;5087029;28;20054;-62
2022/09/18 00:06:14;;;;;;;17.75;4.43;;;;;;;9.74;100.00;101483.94;5084398;28;20020;-67
2022/09/18 00:08:42;;;;;;;18.33;5.07;;;;;;;9.72;100.00;101489.22;5086567;28;20071;-67
2022/09/18 00:11:11;;;;;;;19.75;5.32;;;;;;;9.72;100.00;101488.34;5086316;28;20035;-67
2022/09/18 00:13:37;;;;;;;19.63;5.68;;;;;;;9.82;100.00;101484.13;5084171;28;20054;-68
2022/09/18 00:16:04;;;;;;;20.85;6.25;;;;;;;9.77;100.00;101486.66;5085966;28;20490;-69
2022/09/18 00:18:30;;;;;;;21.67;6.25;;;;;;;9.76;100.00;101479.59;5085020;28;20107;-68
2022/09/18 00:21:05;;;;;;;20.85;6.70;;;;;;;9.73;100.00;101477.78;5084475;28;20070;-68
2022/09/18 00:23:31;;;;;;;20.70;6.60;;;;;;;9.73;100.00;101482.19;5084903;28;20038;-69
2022/09/18 00:25:56;;;;;;;20.38;6.18;;;;;;;9.76;100.00;101477.84;5084521;28;20040;-68
2022/09/18 00:28:21;;;;;;;18.42;5.93;;;;;;;9.69;100.00;101470.69;5086239;28;20020;-67
2022/09/18 00:30:47;;;;;;;19.40;5.90;;;;;;;9.67;100.00;101472.41;5083385;28;20099;-66
2022/09/18 00:33:12;;;;;;;19.67;6.00;;;;;;;9.62;100.00;101484.63;5083221;28;20068;-67
2022/09/18 00:35:42;;;;;;;21.38;6.38;;;;;;;9.62;100.00;101473.19;5085946;28;20027;-67
2022/09/18 00:38:08;;;;;;;20.08;6.07;;;;;;;9.61;100.00;101469.66;5083678;28;20024;-63
2022/09/18 00:40:33;;;;;;;20.67;5.72;;;;;;;9.64;100.00;101468.81;5085534;28;20028;-66
2022/09/18 00:43:15;;;;;;;20.88;6.20;;;;;;;9.64;100.00;101476.72;5084775;28;20024;-66
2022/09/18 00:45:41;;;;;;;18.70;5.78;;;;;;;9.65;100.00;101478.53;5084568;28;20446;-66
2022/09/18 00:48:08;;;;;;;21.45;6.28;;;;;;;9.65;100.00;101483.81;5083853;28;20028;-65
2022/09/18 00:50:33;;;;;;;20.42;6.20;;;;;;;9.63;100.00;101470.56;5085313;28;20371;-65
2022/09/18 00:53:06;;;;;;;21.48;6.30;;;;;;;9.63;100.00;101470.56;5084479;28;20024;-66
2022/09/18 00:55:32;;;;;;;;;;;;;;;9.61;100.00;101482.88;5085178;28;20025;-66
2022/09/18 00:58:00;;;;;;;22.48;6.90;;;;;;;9.63;100.00;101465.28;5085061;28;20068;-66
2022/09/18 01:00:28;;;;;;;21.48;7.20;;;;;;;9.63;100.00;101470.56;5083680;28;20020;-66
2022/09/18 01:02:54;;;;;;;20.92;7.60;;;;;;;9.60;100.00;101475.81;5085441;28;20120;-65
2022/09/18 01:05:44;;;;;;;23.02;7.35;;;;;;;9.61;100.00;101482.88;5082970;28;20056;-66
2022/09/18 01:09:20;;;;;;;20.70;7.43;;;;;;;9.65;100.00;101483.81;5083307;28;20028;-65
2022/09/18 01:12:06;;;;;;;21.25;6.85;;;;;;;9.73;100.00;101479.56;4953761;28;20406;-66
2022/09/18 01:14:37;;;;;;;20.73;6.72;;;;;;;9.79;100.00;101500.78;4953886;29;20046;-66
2022/09/18 01:17:12;;;;;;;20.42;7.20;;;;;;;9.74;100.00;101495.44;4953745;29;20035;-64
2022/09/18 01:20:19;;;;;;;21.15;7.03;;;;;;;9.79;100.00;101484.94;4953609;29;20043;-65
2022/09/18 01:23:19;;;;;;;19.85;6.97;;;;;;;9.77;100.00;101484.00;4953831;29;20098;-66
2022/09/18 01:26:03;;;;;;;21.02;7.78;;;;;;;9.76;100.00;101483.13;4859532;29;20046;-66
2022/09/18 01:28:37;;;;;;;20.98;7.57;;;;;;;9.73;100.00;101482.19;4859490;29;20159;-66
2022/09/18 01:31:12;;;;;;;20.92;7.38;;;;;;;9.72;100.00;101485.69;4859395;29;20090;-66
2022/09/18 01:34:02;;;;;;;20.45;7.18;;;;;;;9.72;100.00;101483.94;4858872;29;20041;-63
2022/09/18 01:36:31;;;;;;;21.45;7.57;;;;;;;9.65;100.00;101478.53;4859378;29;20037;-66
2022/09/18 01:39:03;;;;;;;20.90;7.40;;;;;;;9.62;100.00;101474.06;4859069;29;20370;-64
2022/09/18 01:41:29;;;;;;;21.27;7.53;;;;;;;9.63;100.00;101473.22;4868399;29;20112;-66
2022/09/18 01:44:05;;;;;;;22.27;7.97;;;;;;;9.63;100.00;101473.22;4886462;29;20029;-66
2022/09/18 01:46:32;;;;;;;21.67;7.40;;;;;;;9.56;100.00;101463.41;4900297;28;20482;-65
2022/09/18 01:49:03;;;;;;;21.65;7.57;;;;;;;9.51;100.00;101471.25;4989812;28;20077;-66
2022/09/18 01:51:35;;;;;;;22.02;7.72;;;;;;;9.47;100.00;101466.75;4991826;28;20034;-65
2022/09/18 01:54:06;;;;;;;22.83;7.80;;;;;;;9.46;100.00;101466.72;4991766;28;20130;-66
2022/09/18 01:56:38;;;;;;;23.90;8.20;;;;;;;9.43;100.00;101471.06;4991808;28;20389;-63
2022/09/18 01:59:09;;;;;;;23.13;8.10;;;;;;;9.44;100.00;101464.06;4991795;28;20047;-66
2022/09/18 02:01:39;;;;;;;24.48;9.00;;;;;;;9.41;100.00;101467.53;5049096;28;20119;-65
2022/09/18 02:04:13;;;;;;;23.42;8.70;;;;;;;9.42;100.00;101453.47;5082761;28;20035;-64
2022/09/18 02:06:47;;;;;;;23.80;8.35;;;;;;;9.49;100.00;101450.94;5084103;28;20077;-65
2022/09/18 02:09:13;;;;;;;23.98;8.68;;;;;;;9.53;100.00;101458.06;5081571;28;20386;-63
2022/09/18 02:11:47;;;;;;;24.23;9.13;;;;;;;9.56;100.00;101461.63;5084173;28;20102;-65
2022/09/18 02:14:22;;;;;;;24.95;9.30;;;;;;;9.60;100.00;101462.59;5081474;28;20443;-64
2022/09/18 02:16:52;;;;;;;22.73;8.70;;;;;;;9.62;100.00;101457.34;5081310;28;20032;-65
2022/09/18 02:19:24;;;;;;;24.23;8.68;;;;;;;9.59;100.00;101456.41;5081155;28;20119;-65
2022/09/18 02:21:53;;;;;;;22.38;8.48;;;;;;;9.59;100.00;101451.13;5081245;28;20027;-65
2022/09/18 02:24:23;;;;;;;23.17;8.63;;;;;;;9.60;100.00;101445.00;5084390;28;20533;-66
2022/09/18 02:26:52;;;;;;;24.42;8.48;;;;;;;9.63;100.00;101440.66;5081121;28;20028;-66
2022/09/18 02:29:20;;;;;;;24.17;9.00;;;;;;;9.61;100.00;101448.56;5084465;28;20485;-66
2022/09/18 02:31:48;;;;;;;23.00;7.78;;;;;;;9.64;100.00;101445.97;5081146;28;20021;-66
2022/09/18 02:34:14;;;;;;;23.65;7.55;;;;;;;9.63;100.00;101441.53;5080902;28;20041;-66
2022/09/18 02:36:49;;;;;;;23.20;7.50;;;;;;;9.65;100.00;101441.56;5084011;28;20028;-65
2022/09/18 02:39:40;;;;;;;22.48;7.00;;;;;;;9.64;100.00;101435.41;5080893;28;20039;-65
2022/09/18 02:42:26;;;;;;;24.25;6.82;;;;;;;9.64;100.00;101443.31;5083428;28;20024;-66
2022/09/18 02:45:27;;;;;;;22.77;6.30;;;;;;;9.65;100.00;101431.00;5081279;28;20108;-65
2022/09/18 02:47:52;;;;;;;23.13;6.10;;;;;;;9.66;100.00;101435.44;5081320;28;20052;-65
2022/09/18 02:50:59;;;;;;;20.58;6.15;;;;;;;9.69;100.00;101448.69;5084285;28;20471;-65
2022/09/18 02:53:32;;;;;;;23.70;6.40;;;;;;;9.76;100.00;101443.53;5019469;28;20034;-64
2022/09/18 02:56:06;;;;;;;;;;;;;;;9.69;100.00;101428.44;5021490;28;20574;-63
2022/09/18 02:58:44;;;;;;;21.40;5.80;;;;;;;9.72;100.00;101430.25;5020432;28;20253;-65
2022/09/18 03:01:11;;;;;;;22.20;6.03;;;;;;;9.75;100.00;101428.53;5019207;28;20401;-65
2022/09/18 03:03:37;;;;;;;23.95;5.90;;;;;;;9.80;100.00;101431.28;5021294;28;20034;-64
2022/09/18 03:06:07;;;;;;;21.00;5.70;;;;;;;9.80;100.00;101439.19;5003570;28;20025;-65
2022/09/18 03:08:32;;;;;;;21.95;5.90;;;;;;;9.82;100.00;101433.94;5020314;28;20033;-65
2022/09/18 03:10:58;;;;;;;22.85;5.75;;;;;;;9.83;100.00;101426.03;5020984;28;20417;-65
2022/09/18 03:13:23;;;;;;;21.17;5.45;;;;;;;9.81;100.00;101426.88;5019168;28;20034;-63
2022/09/18 03:15:48;;;;;;;22.40;5.60;;;;;;;9.84;100.00;101427.78;5021756;28;20033;-65
2022/09/18 03:18:14;;;;;;;20.65;5.60;;;;;;;9.91;100.00;101428.81;5022030;28;20034;-62
2022/09/18 03:20:41;;;;;;;21.40;5.45;;;;;;;9.96;100.00;101429.78;5019043;28;20037;-66
2022/09/18 03:23:07;;;;;;;23.63;5.50;;;;;;;9.87;100.00;101426.97;5021023;28;20045;-66
2022/09/18 03:25:32;;;;;;;21.92;5.30;;;;;;;9.84;100.00;101419.88;5020207;28;20034;-64
2022/09/18 03:27:58;;;;;;;20.90;4.97;;;;;;;9.84;100.00;101433.06;5019642;28;20030;-65
2022/09/18 03:30:23;;;;;;;22.15;5.25;;;;;;;9.82;100.00;101418.09;5060426;28;20036;-65
2022/09/18 03:32:49;;;;;;;22.48;5.30;;;;;;;9.82;100.00;101418.97;5080265;28;20032;-62
2022/09/18 03:35:14;;;;;;;21.67;5.45;;;;;;;9.83;100.00;101422.50;5083815;28;20028;-63
2022/09/18 03:37:40;;;;;;;21.08;5.03;;;;;;;9.82;100.00;101418.09;5087366;28;20028;-63
2022/09/18 03:40:06;;;;;;;18.98;4.30;;;;;;;9.79;100.00;101412.78;5085332;28;20102;-64
2022/09/18 03:42:31;;;;;;;19.35;4.55;;;;;;;9.80;100.00;101414.53;5085727;28;20074;-63
2022/09/18 03:44:56;;;;;;;20.85;4.15;;;;;;;9.82;100.00;101412.81;5086728;28;20024;-62
2022/09/18 03:47:23;;;;;;;20.02;3.97;;;;;;;9.80;100.00;101414.53;5082879;28;20391;-63
2022/09/18 03:49:48;;;;;;;20.30;4.10;;;;;;;9.76;100.00;101409.19;5087530;28;20448;-65
2022/09/18 03:52:14;;;;;;;18.30;3.70;;;;;;;9.76;100.00;101405.69;5084346;28;20050;-64
2022/09/18 03:54:39;;;;;;;20.58;4.07;;;;;;;9.75;100.00;101411.81;5086796;28;20028;-63
2022/09/18 03:57:04;;;;;;;18.30;3.72;;;;;;;9.72;100.00;101402.09;5085231;28;20031;-63
2022/09/18 03:59:30;;;;;;;19.80;3.75;;;;;;;9.70;100.00;101398.53;5085369;28;20427;-63
2022/09/18 04:01:56;;;;;;;19.33;3.60;;;;;;;9.67;100.00;101398.50;5086678;28;20020;-67
2022/09/18 04:04:21;;;;;;;20.75;3.70;;;;;;;9.63;100.00;101395.78;5084235;28;20039;-67
2022/09/18 04:06:47;;;;;;;17.02;3.47;;;;;;;9.56;100.00;101398.28;5087330;28;20024;-66
2022/09/18 04:09:12;;;;;;;16.20;3.42;;;;;;;9.53;100.00;101389.44;5082185;28;20061;-67
2022/09/18 04:11:37;;;;;;;19.05;3.65;;;;;;;9.47;100.00;101390.22;5086445;28;20032;-67
2022/09/18 04:14:03;;;;;;;18.23;3.20;;;;;;;9.43;100.00;101389.25;5085017;28;20052;-67
2022/09/18 04:16:28;;;;;;;18.77;3.67;;;;;;;9.43;100.00;101393.66;5084539;28;20490;-66
2022/09/18 04:18:53;;;;;;;19.13;3.47;;;;;;;9.41;100.00;101395.41;5086682;28;20058;-67
2022/09/18 04:21:18;;;;;;;19.98;3.67;;;;;;;9.42;100.00;101392.78;5083531;28;20019;-67
2022/09/18 04:23:44;;;;;;;18.67;3.58;;;;;;;9.42;100.00;101398.06;5086803;28;20359;-66
2022/09/18 04:26:09;;;;;;;17.63;3.33;;;;;;;9.44;100.00;101400.72;5084530;28;20028;-66
2022/09/18 04:28:37;;;;;;;16.08;3.20;;;;;;;9.41;100.00;101398.91;5085405;28;20071;-67
2022/09/18 04:31:03;;;;;;;17.77;3.40;;;;;;;9.42;100.00;101391.88;5084771;28;20049;-69
2022/09/18 04:33:28;;;;;;;17.98;3.53;;;;;;;9.42;100.00;101391.88;5084267;28;20044;-66
2022/09/18 04:35:55;;;;;;;16.73;3.30;;;;;;;9.41;100.00;101396.28;5085795;28;20028;-67
2022/09/18 04:38:26;;;;;;;15.70;3.35;;;;;;;9.40;100.00;101407.69;5083437;28;20035;-66
2022/09/18 04:40:55;;;;;;;19.52;3.60;;;;;;;9.39;100.00;101407.66;5086416;28;20020;-62
2022/09/18 04:43:21;;;;;;;17.40;3.60;;;;;;;9.37;100.00;101407.63;5083302;28;20016;-63
2022/09/18 04:45:48;;;;;;;15.20;3.55;;;;;;;9.36;100.00;101405.88;5085800;28;20421;-63
2022/09/18 04:48:14;;;;;;;16.58;3.67;;;;;;;9.36;100.00;101394.41;5082977;28;20060;-62
2022/09/18 04:50:40;;;;;;;17.33;3.50;;;;;;;9.37;100.00;101401.47;5085565;28;20403;-63
2022/09/18 04:53:05;;;;;;;17.88;3.53;;;;;;;9.36;100.00;101403.25;5084112;28;20024;-63
2022/09/18 04:55:30;;;;;;;17.05;3.60;;;;;;;9.35;100.00;101401.47;5084279;28;20024;-62
2022/09/18 04:57:56;;;;;;;19.50;3.67;;;;;;;9.38;100.00;101405.91;5085512;28;20020;-63
2022/09/18 05:00:21;;;;;;;19.85;3.80;;;;;;;9.37;100.00;101405.00;5082673;28;20237;-62
2022/09/18 05:02:46;;;;;;;20.00;3.80;;;;;;;9.37;100.00;101412.91;5086286;28;20035;-62
2022/09/18 05:05:12;;;;;;;18.90;3.88;;;;;;;9.37;100.00;101399.72;5083137;28;20024;-62
2022/09/18 05:07:37;;;;;;;18.42;3.60;;;;;;;9.36;100.00;101397.06;5085136;28;20020;-62
2022/09/18 05:10:03;;;;;;;15.23;3.50;;;;;;;9.36;100.00;101387.41;5084583;28;20026;-63
2022/09/18 05:12:29;;;;;;;19.73;3.60;;;;;;;9.39;100.00;101389.19;5083760;28;20086;-62
2022/09/18 05:14:54;;;;;;;17.55;3.55;;;;;;;9.41;100.00;101384.84;5085649;28;20457;-64
2022/09/18 05:17:19;;;;;;;15.20;3.72;;;;;;;9.39;100.00;101387.47;5082280;28;20020;-62
2022/09/18 05:19:45;;;;;;;18.98;3.80;;;;;;;9.41;100.00;101396.28;5085330;28;20055;-62
2022/09/18 05:22:10;;;;;;;15.50;3.53;;;;;;;9.45;100.00;101412.16;5083021;28;20111;-62
2022/09/18 05:24:35;;;;;;;17.83;3.72;;;;;;;9.46;100.00;101409.56;5084461;28;20024;-63
2022/09/18 05:27:01;;;;;;;16.88;3.55;;;;;;;9.47;100.00;101406.06;5084390;28;20024;-62
2022/09/18 05:29:26;;;;;;;18.40;3.47;;;;;;;9.51;100.00;101407.00;5083005;28;20406;-64
2022/09/18 05:31:51;;;;;;;17.85;3.65;;;;;;;9.47;100.00;101394.63;5085236;28;20020;-64
2022/09/18 05:34:16;;;;;;;17.55;3.58;;;;;;;9.49;100.00;101400.81;5081714;28;20052;-62
2022/09/18 05:36:42;;;;;;;17.98;3.40;;;;;;;9.52;100.00;101416.69;5085019;28;20046;-63
2022/09/18 05:39:07;;;;;;;19.13;3.33;;;;;;;9.53;100.00;101422.00;5083007;28;20138;-62
2022/09/18 05:41:32;;;;;;;16.08;3.40;;;;;;;9.55;100.00;101425.56;5083435;28;20138;-63
2022/09/18 05:43:58;;;;;;;16.77;3.50;;;;;;;9.56;100.00;101414.13;5084347;28;20028;-62
2022/09/18 05:46:23;;;;;;;16.42;3.22;;;;;;;9.55;100.00;101399.19;5082113;28;20024;-65
2022/09/18 05:48:49;;;;;;;15.48;3.30;;;;;;;9.56;100.00;101411.50;5084037;28;20044;-63
2022/09/18 05:51:15;;;;;;;15.05;3.50;;;;;;;9.55;100.00;101408.81;5081639;28;20024;-62
2022/09/18 05:53:41;;;;;;;17.67;3.58;;;;;;;9.58;100.00;101404.50;5084295;28;20047;-62
2022/09/18 05:56:07;;;;;;;19.58;3.80;;;;;;;9.59;100.00;101410.66;5081661;28;20031;-62
2022/09/18 05:58:33;;;;;;;20.05;4.30;;;;;;;9.62;100.00;101400.16;5080954;28;20475;-65
2022/09/18 06:01:00;;;;;;;19.23;3.75;;;;;;;9.66;100.00;101406.38;5083941;28;20178;-65
2022/09/18 06:03:25;;;;;;;18.10;4.10;;;;;;;9.74;100.00;101400.38;5082205;28;20021;-63
2022/09/18 06:05:52;;;;;;;15.63;3.88;;;;;;;9.72;100.00;101401.22;5084676;28;20032;-63
2022/09/18 06:08:18;;;;;;;20.85;4.13;;;;;;;9.71;100.00;101405.59;5081346;28;20025;-63
2022/09/18 06:10:43;;;;;;;20.35;4.25;;;;;;;9.74;100.00;101402.09;5084937;28;20352;-63
2022/09/18 06:13:12;;;;;;;19.40;4.50;;;;;;;9.72;100.00;101386.25;5082496;28;20122;-65
2022/09/18 06:15:38;;;;;;;18.60;4.20;;;;;;;9.74;100.00;101396.81;5083513;28;20166;-63
2022/09/18 06:18:07;;;;;;;17.85;4.43;;;;;;;9.75;100.00;101399.50;5083102;28;20024;-65
2022/09/18 06:20:33;;;;;;;21.08;4.78;;;;;;;9.85;100.00;101399.66;5082600;28;20408;-62
2022/09/18 06:23:00;;;;;;;20.70;4.60;;;;;;;9.95;100.00;101393.66;5083396;28;20051;-64
2022/09/18 06:25:27;;;;;;;21.95;4.97;;;;;;;9.95;100.00;101396.31;5082046;28;20024;-65
2022/09/18 06:27:57;;;;;;;18.13;4.50;;;;;;;10.01;100.00;101396.38;5084393;28;20467;-64
2022/09/18 06:30:27;;;;;;;19.17;4.65;;;;;;;10.06;100.00;101392.06;5081410;28;20020;-64
2022/09/18 06:32:53;;;;;;;21.48;5.15;;;;;;;10.10;100.00;101399.16;5084360;28;20459;-64
2022/09/18 06:35:18;;;;;;;20.05;5.00;;;;;;;10.09;100.00;101397.41;5080979;28;20028;-65
2022/09/18 06:37:44;;;;;;;19.80;4.80;;;;;;;10.04;100.00;101391.16;5084112;28;20020;-65
2022/09/18 06:40:09;;;;;;;20.83;4.90;;;;;;;10.12;100.00;101384.25;5082278;28;20099;-63
2022/09/18 06:42:34;;;;;;;18.10;4.60;;;;;;;10.12;100.00;101393.94;5082946;28;20020;-65
2022/09/18 06:45:00;;;;;;;20.92;4.63;;;;;;;10.10;100.00;101383.31;5083099;28;20024;-63
2022/09/18 06:47:25;;;;;;;17.90;4.45;;;;;;;10.14;100.00;101386.03;5081472;28;20029;-63
2022/09/18 06:49:50;;;;;;;19.35;4.60;;;;;;;10.20;100.00;101394.91;5084265;28;20025;-65
2022/09/18 06:52:16;;;;;;;19.20;4.75;;;;;;;10.25;100.00;101401.16;5080640;28;20433;-65
2022/09/18 06:54:41;;;;;;;18.02;4.40;;;;;;;10.27;100.00;101394.13;5083505;28;20035;-62
2022/09/18 06:57:07;;;;;;;19.83;4.60;;;;;;;10.32;100.00;101391.56;5082060;28;20043;-65
2022/09/18 06:59:32;;;;;;;19.17;4.60;;;;;;;10.31;100.00;101392.44;5082128;28;20028;-65
2022/09/18 07:01:57;;;;;;;19.17;4.25;;;;;;;10.35;100.00;101394.25;5083577;28;20115;-63
2022/09/18 07:04:23;;;;;;;16.40;4.53;;;;;;;10.38;100.00;101390.78;5080800;28;20395;-65
2022/09/18 07:06:48;;;;;;;18.92;4.50;;;;;;;10.43;100.00;101397.03;5084067;28;20035;-62
2022/09/18 07:09:13;;;;;;;18.40;4.43;;;;;;;10.51;100.00;101397.13;5083236;28;20028;-65
2022/09/18 07:11:39;;;;;;;19.50;4.70;;;;;;;10.58;100.00;101386.66;5087016;28;20036;-63
2022/09/18 07:14:08;;;;;;;17.45;4.60;;;;;;;10.66;100.00;101394.69;5086765;28;20055;-62
2022/09/18 07:16:34;;;;;;;18.88;4.90;;;;;;;10.69;100.00;101383.25;5084777;28;20492;-63
2022/09/18 07:19:00;;;;;;;19.98;4.85;;;;;;;10.74;100.00;101387.72;5087124;28;20027;-62
2022/09/18 07:21:25;;;;;;;18.65;4.72;;;;;;;10.72;100.00;101394.78;5085080;28;20021;-64
2022/09/18 07:23:51;;;;;;;19.02;4.88;;;;;;;10.83;100.00;101386.94;5087749;28;20030;-64
2022/09/18 07:26:17;;;;;;;18.45;4.80;;;;;;;10.87;100.00;101372.91;5084683;28;20021;-62
2022/09/18 07:28:43;;;;;;;20.25;5.03;;;;;;;10.90;100.00;101377.34;5087581;28;20089;-62
2022/09/18 07:31:09;;;;;;;20.73;4.97;;;;;;;10.91;100.00;101374.72;5085622;28;20451;-63
2022/09/18 07:33:34;;;;;;;16.48;4.90;;;;;;;10.86;100.00;101381.69;5085853;28;20040;-64
2022/09/18 07:36:01;;;;;;;18.85;5.43;;;;;;;10.89;100.00;101379.13;5086665;28;20103;-65
2022/09/18 07:38:27;;;;;;;18.83;5.32;;;;;;;11.02;100.00;101388.06;5084791;28;20021;-65
2022/09/18 07:40:52;;;;;;;19.98;5.43;;;;;;;11.06;100.00;101381.06;5087433;28;20026;-65
2022/09/18 07:43:17;;;;;;;18.13;4.70;;;;;;;11.05;100.00;101377.50;5084328;28;20103;-65
2022/09/18 07:45:44;;;;;;;18.63;4.60;;;;;;;10.97;100.00;101384.47;5087215;28;20114;-65
2022/09/18 07:48:09;;;;;;;18.60;4.57;;;;;;;10.97;100.00;101377.44;5085295;28;20047;-65
2022/09/18 07:50:34;;;;;;;18.55;4.90;;;;;;;11.02;100.00;101374.81;5086130;28;20055;-64
2022/09/18 07:53:02;;;;;;;20.75;4.90;;;;;;;11.07;100.00;101365.19;5086183;28;20020;-65
2022/09/18 07:55:28;;;;;;;19.08;4.63;;;;;;;11.09;100.00;101366.09;5084433;28;20036;-65
2022/09/18 07:57:56;;;;;;;16.67;4.40;;;;;;;11.21;100.00;101369.72;5087101;28;20020;-65
2022/09/18 08:00:22;;;;;;;19.67;5.00;;;;;;;11.42;100.00;101371.72;5083954;28;20368;-66
2022/09/18 08:02:47;;;;;;;17.27;4.30;;;;;;;11.46;100.00;101374.41;5084054;28;20024;-67
2022/09/18 08:05:13;;;;;;;16.70;4.10;;;;;;;11.45;100.00;101366.44;5087047;28;20028;-66
2022/09/18 08:07:38;;;;;;;15.98;4.18;;;;;;;11.62;100.00;101358.63;5084644;28;20095;-65
2022/09/18 08:10:05;;;;;;;15.45;4.70;;;;;;;11.84;100.00;101359.72;5084773;28;20052;-66
2022/09/18 08:12:30;;;;;;;17.52;4.47;;;;;;;12.00;100.00;101366.91;5085954;28;20024;-69
2022/09/18 08:14:57;;;;;;;17.23;4.00;;;;;;;12.04;100.00;101351.91;5083871;28;20557;-64
2022/09/18 08:17:23;;;;;;;17.15;4.05;;;;;;;12.11;100.00;101350.19;5087255;28;20024;-65
2022/09/18 08:19:48;;;;;;;16.33;3.70;;;;;;;12.00;100.00;101376.63;5083025;28;20482;-67
2022/09/18 08:22:13;;;;;;;16.70;3.80;;;;;;;11.89;100.00;101379.16;5085450;28;20027;-67
2022/09/18 08:24:39;;;;;;;14.82;3.67;;;;;;;11.87;100.00;101380.91;5084313;28;20012;-64
2022/09/18 08:27:04;;;;;;;13.55;3.40;;;;;;;11.82;100.00;101372.94;5085086;28;20471;-64
2022/09/18 08:29:30;;;;;;;18.48;3.40;;;;;;;11.76;100.00;101372.00;5085828;28;20051;-65
2022/09/18 08:31:55;;;;;;;13.05;3.35;;;;;;;11.75;100.00;101372.84;5083846;28;20020;-64
2022/09/18 08:34:21;;;;;;;11.80;3.30;;;;;;;11.60;100.00;101379.81;5085025;28;20403;-63
2022/09/18 08:36:46;;;;;;;15.23;3.70;;;;;;;11.55;100.00;101378.88;5083155;28;20029;-64
2022/09/18 08:39:11;;;;;;;12.98;3.60;;;;;;;11.54;100.00;101384.19;5084382;28;20033;-63
2022/09/18 08:42:04;;;;;;;15.88;3.72;;;;;;;11.54;100.00;101390.34;5084813;28;20031;-62
2022/09/18 08:44:47;;;;;;;16.20;3.72;;;;;;;11.48;100.00;101374.41;5083854;28;20425;-62
2022/09/18 08:47:25;;;;;;;10.15;3.30;;;;;;;11.46;100.00;101384.09;5083509;28;20064;-63
2022/09/18 08:49:56;;;;;;;14.73;3.67;;;;;;;11.52;100.00;101373.56;5082696;28;20490;-62
2022/09/18 08:52:27;;;;;;;11.88;3.58;;;;;;;11.59;100.00;101372.75;5082723;28;20052;-65
2022/09/18 08:55:03;;;;;;;12.68;4.00;;;;;;;11.73;100.00;101382.56;5082830;28;20032;-66
2022/09/18 08:57:41;;;;;;;15.88;3.67;;;;;;;11.74;100.00;101384.34;5083840;28;20036;-68
2022/09/18 09:00:18;;;;;;;17.75;3.53;;;;;;;11.61;100.00;101386.88;5084182;28;20081;-67
2022/09/18 09:02:52;;;;;;;14.43;3.78;;;;;;;11.61;100.00;101384.22;5085676;28;20058;-66
2022/09/18 09:05:27;;;;;;;16.83;3.97;;;;;;;11.64;100.00;101384.25;5082492;28;20032;-67
2022/09/18 09:08:02;;;;;;;13.85;3.80;;;;;;;11.60;100.00;101378.94;5082518;28;20063;-66
2022/09/18 09:10:36;;;;;;;14.18;3.90;;;;;;;11.65;100.00;101379.88;5083366;28;20070;-67
2022/09/18 09:13:24;;;;;;;14.80;3.90;;;;;;;11.63;100.00;101381.59;5084907;28;20016;-67
2022/09/18 09:16:07;;;;;;;14.55;3.90;;;;;;;11.57;100.00;101392.16;5082514;28;20032;-67
2022/09/18 09:18:42;;;;;;;14.75;3.70;;;;;;;11.66;100.00;101378.97;5083738;28;20036;-66
2022/09/18 09:21:32;;;;;;;15.00;3.75;;;;;;;11.73;100.00;101380.78;5083464;28;20020;-66
2022/09/18 09:24:16;;;;;;;15.95;3.70;;;;;;;11.89;100.00;101383.56;5083108;28;20387;-67
2022/09/18 09:26:42;;;;;;;15.00;3.90;;;;;;;11.81;100.00;101394.09;5083014;28;20028;-66
2022/09/18 09:29:20;;;;;;;12.10;3.65;;;;;;;11.70;100.00;101396.66;5084142;28;20059;-66
2022/09/18 09:31:53;;;;;;;20.10;4.65;;;;;;;11.59;100.00;101386.00;5082235;28;20025;-67
2022/09/18 09:34:41;;;;;;;14.73;4.20;;;;;;;11.69;100.00;101389.59;5082157;28;20068;-67
2022/09/18 09:37:14;;;;;;;16.45;4.18;;;;;;;11.62;100.00;101390.41;5084209;28;20104;-67
2022/09/18 09:39:49;;;;;;;14.82;4.65;;;;;;;11.53;100.00;101385.91;5083099;28;20044;-67
2022/09/18 09:42:24;;;;;;;15.65;4.03;;;;;;;11.51;100.00;101383.25;5084862;28;20063;-66
2022/09/18 09:44:58;;;;;;;16.55;4.10;;;;;;;11.68;100.00;101398.44;5082015;28;20025;-63
2022/09/18 09:47:50;;;;;;;17.50;4.13;;;;;;;11.91;100.00;101387.13;5082138;28;20110;-66
2022/09/18 09:50:35;;;;;;;13.18;3.33;;;;;;;12.14;100.00;101382.88;5082025;28;20020;-65
2022/09/18 09:53:06;;;;;;;15.35;3.40;;;;;;;12.14;100.00;101380.22;5082793;28;20032;-66
2022/09/18 09:55:52;;;;;;;12.40;3.10;;;;;;;12.11;100.00;101384.66;5083848;28;20032;-66
2022/09/18 09:59:06;;;;;;;15.25;3.05;;;;;;;12.12;100.00;101371.41;5042413;28;20048;-66
2022/09/18 10:01:42;;;;;;;11.27;2.72;;;;;;;12.18;100.00;101355.53;5004015;28;20045;-64
2022/09/18 10:04:33;;;;;;;11.30;2.90;;;;;;;12.31;100.00;101347.66;5001638;28;20097;-64
2022/09/18 10:07:03;;;;;;;10.70;2.92;;;;;;;12.64;100.00;101346.94;4944262;29;20062;-65
2022/09/18 10:09:56;;;;;;;14.63;3.20;;;;;;;12.82;100.00;101343.44;4942031;29;20051;-64
2022/09/18 10:12:28;;;;;;;13.90;3.20;;;;;;;12.93;100.00;101343.50;4941600;29;20032;-65
2022/09/18 10:15:01;;;;;;;15.10;3.58;;;;;;;13.13;100.00;101343.50;4944696;29;20070;-64
2022/09/18 10:17:33;;;;;;;12.95;3.70;;;;;;;13.13;100.00;101354.13;4941833;29;20534;-64
2022/09/18 10:19:59;;;;;;;12.23;3.50;;;;;;;13.06;100.00;101344.38;4944153;29;20035;-66
2022/09/18 10:22:26;;;;;;;13.68;3.80;;;;;;;13.27;100.00;101340.00;4941600;29;20597;-65
2022/09/18 10:25:13;;;;;;;12.68;3.60;;;;;;;13.42;100.00;101343.56;4944708;29;20040;-66
2022/09/18 10:27:38;;;;;;;16.23;3.53;;;;;;;13.33;100.00;101347.97;4946847;29;20042;-65
2022/09/18 10:30:13;;;;;;;14.73;3.20;;;;;;;13.49;100.00;101349.78;4942645;29;20032;-66
2022/09/18 10:32:42;;;;;;;11.40;3.40;;;;;;;13.64;100.00;101354.19;4942556;29;20544;-65
2022/09/18 10:35:43;;;;;;;15.05;3.60;;;;;;;13.70;100.00;101351.56;4958266;28;20117;-65
2022/09/18 10:38:28;;;;;;;15.00;3.10;;;;;;;13.58;100.00;101349.78;5012763;28;20048;-66
2022/09/18 10:40:54;;;;;;;11.75;2.90;;;;;;;13.55;100.00;101356.88;5038732;28;20033;-65
2022/09/18 10:43:19;;;;;;;10.00;2.55;;;;;;;13.54;100.00;101349.78;5031057;28;20161;-64
2022/09/18 10:45:51;;;;;;;13.77;2.80;;;;;;;13.63;100.00;101343.56;5084082;28;20020;-65
2022/09/18 10:48:23;;;;;;;9.50;2.30;;;;;;;13.68;100.00;101344.47;5081149;28;20386;-64
2022/09/18 10:50:54;;;;;;;8.05;2.00;;;;;;;13.77;100.00;101344.44;5084244;28;20031;-65
2022/09/18 10:53:30;;;;;;;9.63;2.10;;;;;;;13.97;100.00;101324.97;5080669;28;20024;-65
2022/09/18 10:56:02;;;;;;;9.25;2.25;;;;;;;14.11;100.00;101332.00;5080891;28;20033;-64
2022/09/18 10:58:30;;;;;;;8.60;2.20;;;;;;;14.03;100.00;101327.59;5084205;28;20468;-64
2022/09/18 11:01:02;;;;;;;9.73;2.33;;;;;;;14.00;100.00;101324.94;5080864;28;20024;-65
2022/09/18 11:03:39;;;;;;;13.50;3.20;;;;;;;13.92;100.00;101325.84;5082149;28;20395;-65
2022/09/18 11:06:09;;;;;;;10.75;3.40;;;;;;;13.71;100.00;101329.41;5081880;28;20028;-63
2022/09/18 11:08:42;;;;;;;13.05;3.83;;;;;;;13.49;100.00;101347.13;5082968;28;20061;-65
2022/09/18 11:11:20;;;;;;;11.65;3.30;;;;;;;13.19;100.00;101362.13;5082542;28;20021;-66
2022/09/18 11:13:58;;;;;;;16.23;2.63;;;;;;;12.73;100.00;101368.16;5081129;28;20107;-68
2022/09/18 11:16:34;;;;;;;11.57;2.33;;;;;;;12.03;100.00;101364.28;5080839;28;20383;-68
2022/09/18 11:19:08;;;;;;;12.73;2.28;;;;;;;11.84;100.00;101352.63;5081421;28;20028;-68
2022/09/18 11:21:42;;;;;;;13.52;2.25;;;;;;;11.52;100.00;101369.16;5082784;28;20020;-68
2022/09/18 11:24:17;;;;;;;14.52;2.50;;;;;;;11.36;100.00;101372.53;5082571;28;20025;-68
2022/09/18 11:26:49;;;;;;;12.48;2.50;;;;;;;11.20;100.00;101360.91;5081479;28;20401;-68
2022/09/18 11:29:27;;;;;;;;;;;;;;;11.22;100.00;101366.22;5083621;28;20101;-67